Time;durP1;ratioP1;P1;durP2;ratioP2;P2;SDS_P1;SDS_P2;PMS_P1;PMS_P2;Temp;Humidity;BMP_temperature;BMP_pressure;BME280_temperature;BME280_humidity;BME280_pressure;Samples;Min_cycle;Max_cycle;Signal;HPM_P1;HPM_P2
2021/08/24 00:01:59;;;;;;;4.80;3.90;;;;;;;19.74;82.66;100062.47;5014049;28;20080;-89
2021/08/24 00:04:26;;;;;;;7.25;4.07;;;;;;;19.63;83.11;100070.56;5013757;28;20492;-90
2021/08/24 00:06:53;;;;;;;7.45;5.07;;;;;;;19.75;83.20;100069.44;5014397;28;20414;-89
2021/08/24 00:09:20;;;;;;;5.05;4.40;;;;;;;19.67;83.70;100066.66;5013925;28;20096;-88
2021/08/24 00:11:46;;;;;;;5.97;4.78;;;;;;;19.62;83.94;100061.78;5013793;28;20412;-89
2021/08/24 00:14:13;;;;;;;9.30;4.40;;;;;;;19.68;83.55;100056.94;5014157;28;20088;-89
2021/08/24 00:16:41;;;;;;;6.85;4.55;;;;;;;19.69;83.78;100053.31;5013416;28;20046;-89
2021/08/24 00:19:09;;;;;;;7.22;5.40;;;;;;;19.55;84.79;100058.00;5013851;28;20042;-88
2021/08/24 00:21:38;;;;;;;4.88;4.38;;;;;;;19.85;82.73;100061.50;5013205;28;20548;-88
2021/08/24 00:24:06;;;;;;;5.75;4.70;;;;;;;19.69;83.72;100056.78;5014214;28;20468;-91
2021/08/24 00:26:33;;;;;;;8.07;5.78;;;;;;;19.88;82.96;100059.41;5013148;28;20054;-92
2021/08/24 00:29:00;;;;;;;10.93;5.47;;;;;;;19.76;82.96;100063.19;5013887;28;20046;-92
2021/08/24 00:31:26;;;;;;;9.38;4.88;;;;;;;19.75;83.47;100056.22;5012829;28;20045;-91
2021/08/24 00:33:53;;;;;;;5.80;5.15;;;;;;;19.72;83.96;100051.22;5013635;28;20176;-91
2021/08/24 00:36:20;;;;;;;10.57;5.50;;;;;;;19.81;83.38;100057.47;5013568;28;20092;-90
2021/08/24 00:38:50;;;;;;;11.55;5.68;;;;;;;19.87;83.34;100054.28;5013337;28;20069;-91
2021/08/24 00:41:17;;;;;;;7.78;4.93;;;;;;;19.89;83.57;100057.59;5013358;28;20558;-91
2021/08/24 00:43:46;;;;;;;9.90;5.30;;;;;;;19.60;85.46;100057.59;5012878;28;20534;-91
2021/08/24 00:46:34;;;;;;;15.15;5.25;;;;;;;19.51;86.91;100053.13;5013386;28;20439;-88
2021/08/24 00:49:10;;;;;;;6.60;4.50;;;;;;;19.51;87.30;100050.50;5013264;28;20049;-90
2021/08/24 00:51:40;;;;;;;9.35;4.10;;;;;;;19.39;88.35;100057.72;5013353;28;20096;-91
2021/08/24 00:54:12;;;;;;;9.98;4.13;;;;;;;19.30;89.20;100053.25;5013311;28;20108;-90
2021/08/24 00:56:47;;;;;;;8.73;5.05;;;;;;;19.28;90.08;100052.53;5013147;28;20065;-90
2021/08/24 00:59:14;;;;;;;10.25;3.90;;;;;;;19.34;90.17;100044.91;5011612;28;20042;-90
2021/08/24 01:01:43;;;;;;;11.57;3.33;;;;;;;19.46;90.17;100042.13;5013258;28;20066;-90
2021/08/24 01:04:11;;;;;;;9.85;3.80;;;;;;;19.34;91.18;100044.91;5012827;28;20635;-90
2021/08/24 01:06:55;;;;;;;8.23;3.20;;;;;;;19.30;91.72;100046.16;5013056;28;20064;-91
2021/08/24 01:09:25;;;;;;;8.48;3.88;;;;;;;19.36;90.77;100042.97;5012838;28;20104;-91
2021/08/24 01:12:15;;;;;;;6.72;3.00;;;;;;;19.26;91.92;100042.13;5013229;28;20050;-88
2021/08/24 01:14:52;;;;;;;4.78;3.13;;;;;;;19.34;91.57;100047.56;5013018;28;20042;-88
2021/08/24 01:17:26;;;;;;;4.40;3.50;;;;;;;19.29;92.54;100044.50;5013132;28;20477;-88
2021/08/24 01:20:27;;;;;;;7.87;3.73;;;;;;;19.26;92.46;100034.19;5012676;28;20137;-88
2021/08/24 01:23:31;;;;;;;6.65;3.65;;;;;;;19.14;93.05;100032.66;5013035;28;20297;-86
2021/08/24 01:26:09;;;;;;;8.43;3.40;;;;;;;19.18;92.30;100028.78;5012313;28;20054;-86
2021/08/24 01:28:43;;;;;;;5.47;3.58;;;;;;;19.19;92.73;100037.53;5013048;28;20042;-87
2021/08/24 01:31:53;;;;;;;5.82;3.28;;;;;;;19.26;92.38;100028.91;5012747;28;20080;-86
2021/08/24 01:34:52;;;;;;;5.13;3.40;;;;;;;19.23;92.45;100023.03;5011348;28;20037;-87
2021/08/24 01:37:44;;;;;;;5.85;3.65;;;;;;;19.21;92.96;100022.34;5014052;28;20069;-87
2021/08/24 01:40:16;;;;;;;5.15;3.88;;;;;;;19.15;91.75;100013.19;5010715;28;20096;-87
2021/08/24 01:42:44;;;;;;;10.43;4.47;;;;;;;18.99;92.63;100019.00;5013719;28;20045;-88
2021/08/24 01:45:23;;;;;;;8.52;3.25;;;;;;;18.92;93.56;100022.31;5012839;28;20042;-88
2021/08/24 01:47:55;;;;;;;6.30;3.17;;;;;;;19.06;92.89;100022.75;5012481;28;20606;-88
2021/08/24 01:50:51;;;;;;;6.95;3.35;;;;;;;19.18;91.75;100028.78;5013200;28;20404;-87
2021/08/24 01:53:32;;;;;;;8.38;2.88;;;;;;;19.13;91.60;100030.97;5010328;28;20096;-88
2021/08/24 01:56:07;;;;;;;6.78;2.70;;;;;;;19.17;91.30;100031.53;5012908;28;20137;-88
2021/08/24 01:58:46;;;;;;;6.05;3.78;;;;;;;19.03;91.72;100032.78;5012471;28;20491;-88
2021/08/24 02:01:18;;;;;;;5.75;2.63;;;;;;;19.08;92.01;100030.56;5012319;28;20053;-85
2021/08/24 02:03:49;;;;;;;9.13;2.95;;;;;;;19.02;91.86;100021.38;5012730;28;20042;-85
2021/08/24 02:06:31;;;;;;;15.15;3.63;;;;;;;19.00;91.75;100023.28;5012883;28;20427;-85
2021/08/24 02:09:01;;;;;;;5.90;3.08;;;;;;;18.88;92.42;100024.38;5013015;28;20068;-87
2021/08/24 02:11:32;;;;;;;7.07;2.90;;;;;;;18.93;92.49;100027.47;5012838;28;20455;-89
2021/08/24 02:14:05;;;;;;;12.23;4.20;;;;;;;18.86;93.11;100028.16;5012892;28;20053;-90
2021/08/24 02:16:33;;;;;;;7.10;3.35;;;;;;;18.87;93.56;100021.91;5012444;28;20050;-88
2021/08/24 02:19:05;;;;;;;6.30;3.17;;;;;;;19.00;91.91;100020.66;5012917;28;20122;-90
2021/08/24 02:21:40;;;;;;;6.60;3.78;;;;;;;18.90;92.08;100024.25;5012651;28;20409;-88
2021/08/24 02:24:13;;;;;;;8.80;3.65;;;;;;;18.81;92.86;100018.81;5013199;28;20480;-88
2021/08/24 02:26:41;;;;;;;8.07;3.53;;;;;;;18.89;92.51;100015.50;5012169;28;20130;-89
2021/08/24 02:29:08;;;;;;;7.50;3.40;;;;;;;18.95;92.25;100016.75;5013740;28;20069;-91
2021/08/24 02:32:00;;;;;;;6.32;3.58;;;;;;;18.80;93.25;100019.78;5012208;28;20046;-91
2021/08/24 02:34:35;;;;;;;10.57;3.50;;;;;;;18.94;92.25;100020.38;5015950;28;20046;-91
2021/08/24 02:37:13;;;;;;;8.88;4.07;;;;;;;18.96;91.53;100013.13;5019862;28;20400;-91
2021/08/24 02:39:52;;;;;;;4.90;3.33;;;;;;;18.77;92.84;100013.94;5016038;28;20045;-91
2021/08/24 02:42:25;;;;;;;7.97;3.72;;;;;;;18.76;92.60;100007.81;5015673;28;20045;-89
2021/08/24 02:45:09;;;;;;;9.15;3.67;;;;;;;18.62;93.36;100007.31;5015022;28;20038;-91
2021/08/24 02:47:38;;;;;;;4.40;2.97;;;;;;;18.64;93.64;100019.41;5015394;28;20046;-92
2021/08/24 02:50:08;;;;;;;8.43;4.13;;;;;;;18.75;92.99;100016.72;5016098;28;20455;-89
2021/08/24 02:52:37;;;;;;;13.05;3.90;;;;;;;18.62;94.39;100002.03;5015676;28;20042;-85
2021/08/24 02:55:07;;;;;;;10.95;4.45;;;;;;;18.61;94.07;100003.84;5015554;28;20052;-88
2021/08/24 02:57:35;;;;;;;8.02;3.95;;;;;;;18.61;93.95;100005.66;5016223;28;20272;-88
2021/08/24 03:00:04;;;;;;;5.70;4.40;;;;;;;18.62;94.22;100005.50;5016009;28;20041;-88
2021/08/24 03:02:31;;;;;;;8.00;3.60;;;;;;;18.66;93.66;100006.94;5015465;28;20066;-88
2021/08/24 03:04:58;;;;;;;8.20;3.88;;;;;;;18.62;94.30;99999.41;5014894;28;20038;-86
2021/08/24 03:07:28;;;;;;;5.07;3.45;;;;;;;18.65;94.26;99999.97;5015672;28;20046;-87
2021/08/24 03:09:57;;;;;;;10.10;3.88;;;;;;;18.69;94.11;99990.84;5015399;28;20443;-88
2021/08/24 03:12:58;;;;;;;5.10;3.55;;;;;;;18.76;92.89;99993.78;5015810;28;20128;-88
2021/08/24 03:15:35;;;;;;;6.97;4.78;;;;;;;18.72;93.40;99997.66;5016145;28;20092;-89
2021/08/24 03:18:17;;;;;;;5.35;3.35;;;;;;;18.66;93.11;99993.72;5016315;28;20121;-89
2021/08/24 03:20:48;;;;;;;7.40;3.35;;;;;;;18.62;93.60;100000.25;5016213;28;20477;-92
2021/08/24 03:23:17;;;;;;;9.98;3.85;;;;;;;18.57;93.28;100002.44;5017133;28;20045;-89
2021/08/24 03:25:47;;;;;;;5.13;4.00;;;;;;;18.42;94.42;99994.03;5014811;28;20084;-87
2021/08/24 03:28:16;;;;;;;7.32;3.55;;;;;;;18.44;94.43;100001.84;5015028;28;20100;-89
2021/08/24 03:30:43;;;;;;;8.57;3.53;;;;;;;18.46;94.49;99992.81;5014377;28;20080;-89
2021/08/24 03:33:12;;;;;;;11.73;4.05;;;;;;;18.48;94.67;99987.41;5014672;28;20038;-89
2021/08/24 03:35:42;;;;;;;8.25;3.15;;;;;;;18.43;94.76;99984.31;5014930;28;20042;-89
2021/08/24 03:38:09;;;;;;;10.27;3.67;;;;;;;18.29;94.97;99989.00;5014689;28;20048;-89
2021/08/24 03:40:36;;;;;;;7.28;2.85;;;;;;;18.34;95.08;99991.25;5014776;28;20117;-89
2021/08/24 03:43:03;;;;;;;4.40;3.17;;;;;;;18.46;94.88;99984.06;5014103;28;20084;-90
2021/08/24 03:45:31;;;;;;;4.97;3.70;;;;;;;18.51;94.16;99993.25;5014615;28;20480;-89
2021/08/24 03:47:57;;;;;;;8.45;3.33;;;;;;;18.40;94.83;99995.16;5014238;28;20128;-89
2021/08/24 03:50:25;;;;;;;7.82;4.10;;;;;;;18.31;94.03;99996.78;5014598;28;20491;-87
2021/08/24 03:52:52;;;;;;;3.88;2.55;;;;;;;18.29;94.49;99998.72;5014382;28;20050;-89
2021/08/24 03:55:19;;;;;;;8.38;2.83;;;;;;;18.23;94.83;100002.72;5014292;28;20043;-88
2021/08/24 03:57:46;;;;;;;10.00;4.25;;;;;;;18.20;95.25;99997.69;5013905;28;20100;-88
2021/08/24 04:00:14;;;;;;;9.27;3.85;;;;;;;18.17;95.74;100005.91;5014193;28;20077;-86
2021/08/24 04:02:41;;;;;;;4.80;2.80;;;;;;;18.25;95.16;100007.88;5014027;28;20484;-86
2021/08/24 04:05:10;;;;;;;6.50;3.85;;;;;;;18.29;94.73;100011.91;5013730;28;20046;-87
2021/08/24 04:07:37;;;;;;;4.75;2.35;;;;;;;18.27;94.83;100008.59;5014081;28;20088;-87
2021/08/24 04:10:06;;;;;;;8.48;2.92;;;;;;;18.20;94.60;100016.16;5012684;28;20045;-90
2021/08/24 04:12:32;;;;;;;8.02;3.10;;;;;;;18.26;93.94;100010.34;5014157;28;20041;-89
2021/08/24 04:14:59;;;;;;;5.88;2.95;;;;;;;18.19;94.50;100024.22;5013389;28;20046;-90
2021/08/24 04:17:26;;;;;;;6.97;3.53;;;;;;;18.21;93.75;100028.38;5014836;28;20120;-91
2021/08/24 04:19:53;;;;;;;6.88;2.83;;;;;;;18.00;95.94;100035.47;5014316;28;20053;-89
2021/08/24 04:22:22;;;;;;;10.00;4.40;;;;;;;18.02;96.29;100030.94;5015070;28;20050;-89
2021/08/24 04:24:49;;;;;;;6.35;4.05;;;;;;;18.01;95.66;100034.53;5015349;28;20041;-85
2021/08/24 04:27:16;;;;;;;5.38;3.10;;;;;;;17.97;96.05;100039.22;5014043;28;20042;-86
2021/08/24 04:29:43;;;;;;;7.40;4.05;;;;;;;17.85;96.45;100040.25;5013983;28;20054;-87
2021/08/24 04:32:14;;;;;;;6.05;3.88;;;;;;;17.92;95.03;100044.06;5013401;28;20038;-88
2021/08/24 04:34:41;;;;;;;6.93;3.33;;;;;;;17.87;96.35;100040.97;5013727;28;20057;-88
2021/08/24 04:37:08;;;;;;;7.32;3.20;;;;;;;17.80;96.38;100042.44;5011024;28;20042;-88
2021/08/24 04:39:34;;;;;;;9.32;3.17;;;;;;;17.77;96.94;100038.25;5004251;28;20049;-91
2021/08/24 04:42:01;;;;;;;10.93;3.92;;;;;;;17.88;97.19;100032.06;5017682;28;20133;-89
2021/08/24 04:44:28;;;;;;;7.88;4.07;;;;;;;17.97;96.59;100025.22;5006183;28;20049;-89
2021/08/24 04:46:55;;;;;;;9.63;4.07;;;;;;;18.11;95.48;100037.22;5026636;28;20046;-88
2021/08/24 04:49:23;;;;;;;10.27;3.72;;;;;;;18.04;96.48;100035.09;5009563;28;20045;-88
2021/08/24 04:51:51;;;;;;;9.30;4.43;;;;;;;18.05;96.62;100042.03;5012015;28;20057;-89
2021/08/24 04:54:17;;;;;;;8.52;4.88;;;;;;;17.96;97.67;100039.38;5010525;28;20053;-88
2021/08/24 04:56:44;;;;;;;15.00;4.40;;;;;;;19.04;92.81;100037.06;5012595;28;20037;-92
2021/08/24 04:59:11;;;;;;;7.45;4.47;;;;;;;19.46;85.74;100031.56;5007346;28;20038;-93
2021/08/24 05:01:38;;;;;;;10.18;4.40;;;;;;;19.42;86.08;100031.00;5002929;28;20042;-92
2021/08/24 05:04:05;;;;;;;9.70;5.50;;;;;;;19.75;84.02;100032.41;5012358;28;20045;-93
2021/08/24 05:06:32;;;;;;;7.55;4.05;;;;;;;20.13;81.79;100030.66;5013368;28;20062;-94
2021/08/24 05:09:01;;;;;;;13.10;4.80;;;;;;;21.05;75.07;100027.25;5012232;28;20047;-93
2021/08/24 05:11:28;;;;;;;7.53;3.67;;;;;;;21.20;73.71;100036.38;5009179;28;20496;-91
2021/08/24 05:13:54;;;;;;;4.75;3.35;;;;;;;20.79;74.99;100035.91;4998830;28;20038;-92
2021/08/24 05:16:21;;;;;;;4.70;3.30;;;;;;;21.19;74.33;100037.31;5004905;28;20571;-92
2021/08/24 05:18:48;;;;;;;9.63;4.05;;;;;;;21.21;73.87;100032.72;4997205;28;20449;-92
2021/08/24 05:21:15;;;;;;;6.47;4.72;;;;;;;20.42;77.96;100038.53;5011405;28;20108;-94
2021/08/24 05:23:42;;;;;;;5.65;3.42;;;;;;;19.98;81.32;100040.06;5002945;28;20041;-89
2021/08/24 05:26:14;;;;;;;7.55;3.88;;;;;;;19.80;83.18;100034.63;5003987;28;20074;-89
2021/08/24 05:28:41;;;;;;;8.35;4.55;;;;;;;20.09;81.63;100043.38;5005568;28;20045;-92
2021/08/24 05:31:08;;;;;;;12.00;4.68;;;;;;;19.70;84.09;100047.88;5006255;28;20481;-92
2021/08/24 05:33:34;;;;;;;7.07;4.63;;;;;;;20.21;81.39;100048.50;5008279;28;20108;-90
2021/08/24 05:36:03;;;;;;;7.30;4.75;;;;;;;19.61;84.11;100040.78;4999604;28;20043;-92
2021/08/24 05:38:32;;;;;;;9.13;5.07;;;;;;;20.04;83.63;100050.06;5005526;28;20046;-87
2021/08/24 05:40:59;;;;;;;6.75;5.82;;;;;;;19.88;84.03;100053.28;5010901;28;20041;-85
2021/08/24 05:43:28;;;;;;;11.52;6.35;;;;;;;20.21;81.57;100049.31;5012290;28;20049;-83
2021/08/24 05:45:57;;;;;;;10.70;7.32;;;;;;;19.81;84.16;100046.88;5012354;28;20092;-83
2021/08/24 05:48:25;;;;;;;8.68;7.35;;;;;;;19.91;83.88;100046.88;5011697;28;20480;-88
2021/08/24 05:50:52;;;;;;;11.82;7.60;;;;;;;19.98;83.80;100040.06;5027411;28;20100;-88
2021/08/24 05:53:19;;;;;;;22.75;8.55;;;;;;;20.42;81.35;100043.84;5012392;28;20388;-88
2021/08/24 05:55:46;;;;;;;16.80;7.70;;;;;;;20.36;81.23;100049.72;5012079;28;20114;-89
2021/08/24 05:58:13;;;;;;;14.05;8.07;;;;;;;20.32;82.18;100056.28;5004013;28;20096;-84
2021/08/24 06:00:40;;;;;;;9.05;7.20;;;;;;;20.77;79.58;100059.03;4999338;28;20046;-87
2021/08/24 06:03:08;;;;;;;16.15;7.57;;;;;;;21.02;78.33;100059.34;5010530;28;20128;-87
2021/08/24 06:05:38;;;;;;;21.80;8.93;;;;;;;20.93;79.29;100053.97;5008032;28;20041;-87
2021/08/24 06:08:06;;;;;;;14.25;7.78;;;;;;;21.25;77.49;100054.44;5014254;28;20133;-87
2021/08/24 06:10:37;;;;;;;13.27;8.43;;;;;;;20.71;80.07;100062.28;5013100;28;20049;-88
2021/08/24 06:13:05;;;;;;;13.15;8.30;;;;;;;21.65;75.42;100062.84;5015170;28;20042;-88
2021/08/24 06:15:32;;;;;;;15.60;9.55;;;;;;;21.65;75.21;100068.13;5015007;28;20046;-87
2021/08/24 06:17:59;;;;;;;12.40;7.05;;;;;;;21.78;74.24;100066.91;5015119;28;20041;-87
2021/08/24 06:20:26;;;;;;;10.27;7.30;;;;;;;21.33;76.98;100066.00;5015266;28;20096;-88
2021/08/24 06:22:53;;;;;;;9.63;6.63;;;;;;;22.15;72.75;100070.22;5015915;28;20054;-87
2021/08/24 06:25:22;;;;;;;11.68;6.68;;;;;;;21.81;74.80;100066.63;5015597;28;20060;-87
2021/08/24 06:27:50;;;;;;;8.10;7.20;;;;;;;21.11;77.87;100063.75;5016416;28;20084;-88
2021/08/24 06:30:19;;;;;;;8.77;7.97;;;;;;;21.03;79.24;100067.13;5016153;28;20042;-88
2021/08/24 06:32:52;;;;;;;12.15;8.77;;;;;;;21.06;78.69;100063.38;5015629;28;20041;-87
2021/08/24 06:35:21;;;;;;;11.68;7.93;;;;;;;21.60;76.48;100062.47;5016187;28;20082;-87
2021/08/24 06:37:53;;;;;;;24.25;8.73;;;;;;;21.58;76.07;100066.25;5016115;28;20084;-87
2021/08/24 06:40:21;;;;;;;12.30;7.72;;;;;;;21.42;76.89;100062.47;5016097;28;20046;-88
2021/08/24 06:42:50;;;;;;;11.38;8.57;;;;;;;21.18;77.89;100063.00;5015312;28;20041;-87
2021/08/24 06:45:25;;;;;;;10.48;7.50;;;;;;;21.01;78.18;100070.94;5016218;28;20041;-87
2021/08/24 06:47:53;;;;;;;11.77;8.13;;;;;;;20.96;79.65;100070.53;5015272;28;20042;-87
2021/08/24 06:50:23;;;;;;;10.63;6.95;;;;;;;21.15;78.69;100070.44;5016003;28;20038;-87
2021/08/24 06:52:49;;;;;;;7.57;5.72;;;;;;;21.57;76.54;100061.91;5015626;28;20041;-87
2021/08/24 06:55:17;;;;;;;10.38;6.15;;;;;;;21.38;77.47;100068.22;5014434;28;20046;-86
2021/08/24 06:57:44;;;;;;;11.40;7.03;;;;;;;21.55;76.60;100058.59;5015791;28;20085;-87
2021/08/24 07:00:15;;;;;;;7.43;5.88;;;;;;;20.99;79.04;100059.66;5015410;28;20062;-88
2021/08/24 07:02:43;;;;;;;11.05;6.03;;;;;;;21.37;77.97;100069.22;5014531;28;20045;-88
2021/08/24 07:05:11;;;;;;;8.93;6.93;;;;;;;21.43;76.78;100071.25;5015525;28;20451;-87
2021/08/24 07:07:38;;;;;;;12.27;6.28;;;;;;;21.67;75.10;100074.13;5015413;28;20104;-87
2021/08/24 07:10:06;;;;;;;10.13;6.47;;;;;;;21.63;75.71;100064.00;5015380;28;20046;-87
2021/08/24 07:12:33;;;;;;;8.02;5.90;;;;;;;22.28;71.97;100069.00;5015582;28;20038;-88
2021/08/24 07:14:59;;;;;;;10.65;7.30;;;;;;;21.52;76.76;100069.50;5015316;28;20042;-87
2021/08/24 07:17:26;;;;;;;9.25;7.60;;;;;;;21.31;78.61;100064.50;5015628;28;20041;-87
2021/08/24 07:19:53;;;;;;;11.93;8.05;;;;;;;21.63;77.04;100071.94;5014187;28;20408;-88
2021/08/24 07:22:20;;;;;;;12.10;6.18;;;;;;;21.41;75.60;100073.19;5015338;28;20064;-87
2021/08/24 07:24:47;;;;;;;11.20;7.75;;;;;;;21.12;78.92;100070.72;5015148;28;20108;-87
2021/08/24 07:27:13;;;;;;;10.45;8.10;;;;;;;21.30;78.94;100070.78;5014590;28;20038;-87
2021/08/24 07:29:40;;;;;;;10.15;7.18;;;;;;;21.79;76.69;100069.44;5015342;28;20070;-87
2021/08/24 07:32:09;;;;;;;11.98;9.13;;;;;;;21.65;77.29;100072.63;5014339;28;20034;-87
2021/08/24 07:34:37;;;;;;;15.27;9.30;;;;;;;21.37;78.12;100070.03;5015056;28;20088;-87
2021/08/24 07:37:04;;;;;;;18.27;8.90;;;;;;;21.71;77.69;100072.00;5014800;28;20064;-88
2021/08/24 07:39:31;;;;;;;10.85;7.35;;;;;;;21.75;77.15;100078.69;5014951;28;20042;-88
2021/08/24 07:41:58;;;;;;;15.45;8.95;;;;;;;21.79;77.60;100080.03;5014790;28;20042;-88
2021/08/24 07:44:28;;;;;;;11.55;7.85;;;;;;;21.91;75.45;100073.50;5014914;28;20495;-87
2021/08/24 07:46:54;;;;;;;11.40;7.72;;;;;;;21.93;76.32;100071.53;5014751;28;20076;-88
2021/08/24 07:49:21;;;;;;;9.00;6.75;;;;;;;22.16;74.87;100071.06;5014610;28;20057;-87
2021/08/24 07:51:48;;;;;;;11.93;8.98;;;;;;;21.97;75.37;100072.06;5014888;28;20100;-86
2021/08/24 07:54:14;;;;;;;11.43;6.20;;;;;;;21.97;75.16;100072.88;5014542;28;20510;-87
2021/08/24 07:56:41;;;;;;;17.42;7.13;;;;;;;22.04;74.88;100077.56;5014739;28;20042;-87
2021/08/24 07:59:08;;;;;;;8.82;5.75;;;;;;;22.54;72.48;100079.59;5014417;28;20050;-87
2021/08/24 08:01:37;;;;;;;7.20;6.45;;;;;;;22.27;73.24;100070.81;5014673;28;20073;-88
2021/08/24 08:04:04;;;;;;;11.95;8.10;;;;;;;21.85;76.03;100082.09;5014092;28;20382;-87
2021/08/24 08:06:32;;;;;;;8.35;7.55;;;;;;;21.91;74.42;100078.81;5014588;28;20030;-88
2021/08/24 08:08:58;;;;;;;10.18;6.22;;;;;;;22.18;74.21;100085.00;5013934;28;20046;-88
2021/08/24 08:11:27;;;;;;;9.63;6.85;;;;;;;22.02;75.01;100084.88;5014424;28;20046;-87
2021/08/24 08:13:54;;;;;;;8.60;7.07;;;;;;;22.03;75.07;100083.88;5014178;28;20045;-87
2021/08/24 08:16:22;;;;;;;8.98;6.78;;;;;;;22.23;73.35;100082.72;5013869;28;20492;-87
2021/08/24 08:18:50;;;;;;;7.30;4.80;;;;;;;22.67;71.76;100095.94;5014097;28;20535;-87
2021/08/24 08:21:18;;;;;;;10.27;6.20;;;;;;;22.60;71.88;100095.75;5013934;28;20080;-87
2021/08/24 08:23:48;;;;;;;9.02;6.25;;;;;;;23.02;70.53;100099.47;5014380;28;20050;-87
2021/08/24 08:26:15;;;;;;;13.73;7.57;;;;;;;22.30;72.06;100099.69;5013471;28;20050;-87
2021/08/24 08:28:42;;;;;;;7.72;5.72;;;;;;;22.30;71.33;100102.34;5014007;28;20045;-87
2021/08/24 08:31:12;;;;;;;13.68;5.60;;;;;;;22.69;69.87;100101.91;5013746;28;20038;-87
2021/08/24 08:33:40;;;;;;;10.18;5.93;;;;;;;22.51;70.28;100106.47;5014200;28;20100;-87
2021/08/24 08:36:06;;;;;;;6.47;3.70;;;;;;;22.70;65.23;100106.25;5013852;28;20188;-87
2021/08/24 08:38:33;;;;;;;4.55;3.03;;;;;;;23.33;61.24;100105.00;5014277;28;20104;-88
2021/08/24 08:41:15;;;;;;;4.20;3.28;;;;;;;23.66;57.76;100095.31;5013687;28;20499;-88
2021/08/24 08:43:48;;;;;;;6.90;3.30;;;;;;;23.50;61.91;100093.44;5013669;28;20046;-87
2021/08/24 08:46:26;;;;;;;3.78;3.38;;;;;;;23.57;59.44;100097.09;5013778;28;20046;-87
2021/08/24 08:49:15;;;;;;;8.95;3.65;;;;;;;23.24;60.11;100098.84;5013491;28;20054;-87
2021/08/24 08:52:23;;;;;;;7.10;2.78;;;;;;;23.11;56.21;100104.63;5013645;28;20100;-87
2021/08/24 08:54:58;;;;;;;4.65;3.00;;;;;;;23.09;57.15;100100.47;5012453;28;20050;-87
2021/08/24 08:57:37;;;;;;;6.80;3.90;;;;;;;23.15;58.80;100097.16;5013310;28;20510;-86
2021/08/24 09:00:09;;;;;;;8.95;3.45;;;;;;;23.23;55.24;100092.72;5013362;28;20052;-87
2021/08/24 09:03:08;;;;;;;5.90;4.13;;;;;;;23.54;57.49;100094.75;5013542;28;20046;-87
2021/08/24 09:05:37;;;;;;;5.90;3.00;;;;;;;23.75;56.68;100089.00;5012367;28;20126;-87
2021/08/24 09:08:04;;;;;;;4.45;3.03;;;;;;;23.48;56.41;100084.78;5011911;28;20488;-87
2021/08/24 09:10:49;;;;;;;4.15;2.75;;;;;;;23.20;55.84;100081.56;5012836;28;20042;-87
2021/08/24 09:13:22;;;;;;;4.88;2.78;;;;;;;23.58;55.18;100082.78;5013380;28;20116;-87
2021/08/24 09:15:57;;;;;;;4.10;2.85;;;;;;;23.95;54.50;100082.34;5013128;28;20095;-88
2021/08/24 09:18:47;;;;;;;3.55;2.60;;;;;;;24.92;51.42;100074.31;5013252;28;20045;-88
2021/08/24 09:21:27;;;;;;;5.13;3.25;;;;;;;24.60;52.89;100076.09;5013016;28;20121;-88
2021/08/24 09:23:57;;;;;;;4.13;2.65;;;;;;;24.30;53.31;100072.34;5013308;28;20472;-88
2021/08/24 09:26:42;;;;;;;3.95;2.03;;;;;;;23.44;53.14;100070.16;5012598;28;20451;-89
2021/08/24 09:29:09;;;;;;;5.07;2.45;;;;;;;24.62;51.45;100078.63;5013228;28;20100;-90
2021/08/24 09:31:36;;;;;;;5.28;2.45;;;;;;;24.61;48.40;100068.94;5012843;28;20487;-90
2021/08/24 09:34:03;;;;;;;2.72;1.92;;;;;;;25.29;48.80;100065.66;5013120;28;20053;-89
2021/08/24 09:36:30;;;;;;;3.55;2.35;;;;;;;24.78;48.97;100059.91;5012351;28;20034;-89
2021/08/24 09:38:59;;;;;;;6.13;2.70;;;;;;;25.19;48.48;100068.53;5012890;28;20413;-90
2021/08/24 09:41:29;;;;;;;3.88;1.85;;;;;;;24.79;44.73;100066.88;5012669;28;20088;-90
2021/08/24 09:44:18;;;;;;;5.55;2.53;;;;;;;24.79;44.32;100065.03;5013029;28;20042;-90
2021/08/24 09:46:46;;;;;;;2.40;1.58;;;;;;;25.00;44.45;100061.78;5012366;28;20508;-89
2021/08/24 09:49:21;;;;;;;3.67;1.83;;;;;;;24.43;44.51;100070.00;5013136;28;20100;-90
2021/08/24 09:52:00;;;;;;;2.03;1.50;;;;;;;25.23;44.67;100071.69;5012442;28;20377;-89
2021/08/24 09:54:53;;;;;;;3.10;1.35;;;;;;;25.13;44.77;100060.41;5012798;28;20041;-89
2021/08/24 09:57:32;;;;;;;3.50;1.80;;;;;;;25.25;44.80;100067.03;5007072;28;20424;-89
2021/08/24 10:00:23;;;;;;;2.35;2.03;;;;;;;24.75;45.46;100069.06;5012968;28;20045;-88
2021/08/24 10:03:00;;;;;;;5.35;2.00;;;;;;;24.61;44.65;100077.78;5012632;28;20602;-87
2021/08/24 10:05:28;;;;;;;2.85;1.85;;;;;;;24.54;44.75;100072.28;5012627;28;20369;-88
2021/08/24 10:07:58;;;;;;;39.20;3.50;;;;;;;25.15;43.88;100074.41;5012359;28;20042;-89
2021/08/24 10:10:31;;;;;;;3.70;2.47;;;;;;;25.31;43.17;100075.16;5012502;28;20050;-89
2021/08/24 10:13:18;;;;;;;6.90;1.58;;;;;;;25.19;43.03;100065.03;5012582;28;20100;-89
2021/08/24 10:15:45;;;;;;;2.25;2.03;;;;;;;25.43;44.00;100070.25;5012502;28;20073;-89
2021/08/24 10:18:21;;;;;;;2.38;1.83;;;;;;;25.30;42.90;100059.31;5013004;28;20038;-89
2021/08/24 10:21:02;;;;;;;3.15;1.65;;;;;;;25.15;42.38;100058.41;5012331;28;20041;-89
2021/08/24 10:23:34;;;;;;;1.70;1.50;;;;;;;25.64;41.01;100058.91;5012644;28;20042;-88
2021/08/24 10:26:05;;;;;;;2.13;1.48;;;;;;;25.22;42.16;100060.19;5011943;28;20061;-89
2021/08/24 10:28:46;;;;;;;3.47;1.63;;;;;;;25.44;41.72;100050.53;5012236;28;20042;-89
2021/08/24 10:31:20;;;;;;;1.83;1.60;;;;;;;25.53;41.92;100049.47;5012406;28;20045;-89
2021/08/24 10:33:58;;;;;;;2.05;1.55;;;;;;;25.67;41.36;100045.19;5012420;28;20045;-89
2021/08/24 10:36:37;;;;;;;3.30;1.75;;;;;;;25.40;42.29;100046.56;5012267;28;20046;-89
2021/08/24 10:39:15;;;;;;;5.18;1.73;;;;;;;25.71;41.96;100046.50;5012660;28;20046;-89
2021/08/24 10:42:03;;;;;;;2.40;1.90;;;;;;;25.16;42.55;100044.06;5012321;28;20049;-89
2021/08/24 10:44:52;;;;;;;1.63;1.42;;;;;;;25.63;42.06;100048.41;5012617;28;20073;-89
2021/08/24 10:47:52;;;;;;;3.45;2.58;;;;;;;25.92;42.77;100045.03;5011999;28;20053;-89
2021/08/24 10:50:26;;;;;;;3.38;1.70;;;;;;;26.17;42.37;100041.13;5012261;28;20095;-89
2021/08/24 10:52:55;;;;;;;5.63;2.93;;;;;;;26.26;41.66;100042.69;5012253;28;20042;-89
2021/08/24 10:55:28;;;;;;;4.35;1.75;;;;;;;27.19;40.54;100038.56;5015486;28;20171;-88
2021/08/24 10:58:06;;;;;;;4.00;2.28;;;;;;;27.00;40.30;100045.31;5015548;28;20042;-88
2021/08/24 11:00:51;;;;;;;4.20;3.10;;;;;;;26.28;43.24;100050.53;5015698;28;20041;-89
2021/08/24 11:03:48;;;;;;;4.55;2.50;;;;;;;26.77;42.44;100039.28;5015164;28;20077;-88
2021/08/24 11:06:17;;;;;;;4.30;3.28;;;;;;;26.29;42.71;100038.81;5014297;28;20046;-89
2021/08/24 11:09:12;;;;;;;7.93;3.15;;;;;;;26.31;43.20;100040.31;5015431;28;20053;-89
2021/08/24 11:12:13;;;;;;;4.72;2.85;;;;;;;26.74;42.54;100036.97;5013961;28;20050;-89
2021/08/24 11:14:58;;;;;;;3.45;3.00;;;;;;;26.35;42.63;100043.41;5015053;28;20116;-90
2021/08/24 11:17:42;;;;;;;4.18;3.28;;;;;;;25.50;44.85;100036.47;5015391;28;20045;-89
2021/08/24 11:20:22;;;;;;;6.25;4.20;;;;;;;25.64;44.85;100036.72;5015128;28;20412;-87
2021/08/24 11:23:07;;;;;;;4.90;4.13;;;;;;;25.96;44.67;100035.66;5015141;28;20042;-87
2021/08/24 11:25:46;;;;;;;3.85;3.40;;;;;;;24.92;45.63;100024.47;5014689;28;20404;-88
2021/08/24 11:28:54;;;;;;;4.45;3.45;;;;;;;24.90;45.71;100029.16;5015258;28;20050;-87
2021/08/24 11:31:36;;;;;;;5.75;3.45;;;;;;;25.66;44.75;100022.19;4973596;28;20047;-88
2021/08/24 11:34:18;;;;;;;6.45;4.32;;;;;;;25.48;44.38;100022.50;5012646;28;20100;-87
2021/08/24 11:36:59;;;;;;;5.18;4.32;;;;;;;25.10;45.13;100024.28;5015270;28;20368;-88
2021/08/24 11:39:43;;;;;;;5.30;3.67;;;;;;;25.50;44.66;100020.47;5015137;28;20100;-89
2021/08/24 11:42:17;;;;;;;3.72;3.30;;;;;;;26.46;42.87;100024.28;5014814;28;20054;-88
2021/08/24 11:44:53;;;;;;;5.60;4.13;;;;;;;26.30;43.07;100029.78;5014820;28;20042;-89
2021/08/24 11:47:32;;;;;;;5.20;4.22;;;;;;;26.21;43.24;100028.22;5014754;28;20152;-88
2021/08/24 11:50:11;;;;;;;4.20;2.60;;;;;;;26.62;42.55;100025.94;5014631;28;20100;-89